Mount Desert, Maine
Current Conditions -  °F | °C
As of 2:55 PM on Thursday 30 Oct 2014 (Local Time) from KBHB Reporting Station
Overcast Overcast  
Wind Chill: 54°   Ceiling: 9000
Heat Index: 54°   Visibility: 10mi
Dew Point: 43°   Wind: 6mph
Humidity: 67%   Direction: 270°W
Pressure: 29.86"   Gusts: NA
Location:  44.36°N, 68.33°W
Report Text: KBHB 301855Z AUTO 27005KT 10SM OVC090 12/06 A2986 RMK AO1
Loading
Personal Weather Stations






























Interactive Weather Map
Tropical Storm Tracking
New forecast layout! Learn more

10-Day Weather Forecast

Advertisements
Track Severe Weather on mobile